Airfield :
LOGIN :

Register | Disclaimer

   EN    FR    IT 

 










Legend :    VFR   Marginal VFR   IFR   Intensive IFR   Very Intensive IFR
Visi :
Ceiling :
>= 8 km
>= 3000ft
5 to 8 km
1000 to 3000 ft
1500m to 5 km
500 to 1000 ft
800 to 1500m
200 to 500 ft
< 800m
< 200 ft
Symbols :   Thunderstorms  Fog  Heavy snow  Heavy precipitations  Wind > 20 kt
SIGMETs :     Misc.  Thunderstorms  Icing  Turbulence  Mountain Waves  Volcanic Ashes






- Airport Elevation : 330 ft
- IATA code : LVA


LFOV - Laval-Entrammes

CURRENT METAR :
  • 171200Z AUTO 31007KT 250V340 9999 FEW040 BKN047 BKN060 10/06 Q1018

EXPIRED METARs :
  • 171130Z AUTO 32013KT 290V360 9999 -RA FEW026 SCT035 BKN046 09/05 Q1018
  • 171100Z AUTO 30009KT 9999 FEW033 SCT048 OVC058 10/04 Q1018
  • 171030Z AUTO 30009KT 260V330 9999 FEW034 SCT047 BKN056 11/05 Q1018
  • 171000Z AUTO 30009KT 250V360 9999 BKN032 BKN039 BKN080 11/05 Q1018
  • 170930Z AUTO 30008KT 250V340 9999 FEW026 SCT049 11/05 Q1018
  • 170900Z AUTO 29009KT 260V340 9999 BKN022 BKN028 BKN052 11/06 Q1018
  • 170830Z AUTO 31006KT 280V360 9999 SCT021 BKN027 BKN037 11/06 Q1018
  • 170800Z AUTO 31006KT 230V340 9999 SCT028 SCT033 10/06 Q1019
  • 170730Z AUTO 30006KT 270V340 9999 SCT025 BKN032 09/06 Q1019

TAF N/A



MET'MAP, your aeronautical weather chart ! - Copyright ORBIFLY December 2007 - Disclaimer

ORBIFLY MET'MAP TEAM :

Programming & Development : Alexandra Zaïnal
Original concept : Baudouin d'Aumeries
Technical & hardware support : Manuel Goepfert
Assistance : Marc-Olivier Méhu




SOURCES & CREDITS :

   NOAA